Time,TemperatureF,DewpointF,PressureIn,WindDirection,WindDirectionDegrees,WindSpeedMPH,WindSpeedGustMPH,Humidity,HourlyPrecipIn,Conditions,Clouds,dailyrainin,SoftwareType,DateUTC
2013-07-28 00:01:00,67.7,66.2,29.95,West,266,0.0,0.0,95,0.00,,,0.00,Wunderground v.1.13,2013-07-28 04:01:00,
2013-07-28 00:03:00,67.7,66.2,29.95,West,266,0.0,0.0,95,0.00,,,0.00,Wunderground v.1.13,2013-07-28 04:03:00,
2013-07-28 00:04:00,67.7,66.2,29.95,West,266,0.0,0.0,95,0.00,,,0.00,Wunderground v.1.13,2013-07-28 04:04:00,
2013-07-28 00:05:00,67.7,66.2,29.95,West,266,0.0,0.0,95,0.00,,,0.00,Wunderground v.1.13,2013-07-28 04:05:00,
2013-07-28 00:10:00,67.6,66.1,29.95,West,266,0.0,0.0,95,0.00,,,0.00,Wunderground v.1.13,2013-07-28 04:10:00,
2013-07-28 00:11:00,67.6,66.1,29.94,West,266,0.0,0.0,95,0.00,,,0.00,Wunderground v.1.13,2013-07-28 04:11:00,
2013-07-28 00:16:00,67.5,66.0,29.94,West,266,0.0,0.0,95,0.00,,,0.00,Wunderground v.1.13,2013-07-28 04:16:00,
2013-07-28 00:22:00,67.4,65.9,29.94,West,266,0.0,0.0,95,0.00,,,0.00,Wunderground v.1.13,2013-07-28 04:22:00,
2013-07-28 00:28:00,67.3,65.8,29.94,West,266,0.0,0.0,95,0.00,,,0.00,Wunderground v.1.13,2013-07-28 04:28:00,
2013-07-28 00:34:00,67.3,65.8,29.94,West,266,0.0,0.0,95,0.00,,,0.00,Wunderground v.1.13,2013-07-28 04:34:00,
2013-07-28 00:39:00,67.3,65.8,29.94,West,266,0.0,0.0,95,0.00,,,0.00,Wunderground v.1.13,2013-07-28 04:39:00,
2013-07-28 00:44:00,67.3,65.8,29.94,West,266,0.0,0.0,95,0.00,,,0.00,Wunderground v.1.13,2013-07-28 04:44:00,
2013-07-28 00:50:00,67.2,65.7,29.94,West,266,0.0,0.0,95,0.00,,,0.00,Wunderground v.1.13,2013-07-28 04:50:00,
2013-07-28 00:56:00,67.2,65.7,29.94,West,266,0.0,0.0,95,0.00,,,0.00,Wunderground v.1.13,2013-07-28 04:56:00,
2013-07-28 01:02:00,67.2,66.0,29.94,West,266,0.0,0.0,96,0.00,,,0.00,Wunderground v.1.13,2013-07-28 05:02:00,
2013-07-28 01:07:00,67.1,65.9,29.94,West,266,0.0,0.0,96,0.00,,,0.00,Wunderground v.1.13,2013-07-28 05:07:00,
2013-07-28 01:13:00,67.1,65.9,29.94,West,266,0.0,0.0,96,0.00,,,0.00,Wunderground v.1.13,2013-07-28 05:13:00,
2013-07-28 01:19:00,67.0,65.8,29.94,West,266,0.0,0.0,96,0.00,,,0.00,Wunderground v.1.13,2013-07-28 05:19:00,
2013-07-28 01:24:00,67.0,65.8,29.93,West,266,0.0,0.0,96,0.00,,,0.00,Wunderground v.1.13,2013-07-28 05:24:00,
2013-07-28 01:29:00,66.9,65.7,29.93,West,266,0.0,0.0,96,0.00,,,0.00,Wunderground v.1.13,2013-07-28 05:29:00,
2013-07-28 01:34:00,66.8,65.6,29.93,West,266,0.0,0.0,96,0.00,,,0.00,Wunderground v.1.13,2013-07-28 05:34:00,
2013-07-28 01:40:00,66.8,65.6,29.93,West,266,0.0,0.0,96,0.00,,,0.00,Wunderground v.1.13,2013-07-28 05:40:00,
2013-07-28 01:46:00,66.6,65.4,29.93,West,266,0.0,0.0,96,0.00,,,0.00,Wunderground v.1.13,2013-07-28 05:46:00,
2013-07-28 01:52:00,66.5,65.3,29.93,West,266,0.0,0.0,96,0.00,,,0.00,Wunderground v.1.13,2013-07-28 05:52:00,
2013-07-28 01:57:00,66.5,65.3,29.93,West,266,0.0,0.0,96,0.00,,,0.00,Wunderground v.1.13,2013-07-28 05:57:00,
2013-07-28 02:03:00,66.3,65.1,29.93,West,266,0.0,0.0,96,0.00,,,0.00,Wunderground v.1.13,2013-07-28 06:03:00,
2013-07-28 02:08:00,66.2,65.0,29.93,West,266,0.0,0.0,96,0.00,,,0.00,Wunderground v.1.13,2013-07-28 06:08:00,
2013-07-28 02:14:00,66.1,64.9,29.93,West,266,0.0,0.0,96,0.00,,,0.00,Wunderground v.1.13,2013-07-28 06:14:00,
2013-07-28 02:19:00,66.1,64.9,29.93,West,266,0.0,0.0,96,0.00,,,0.00,Wunderground v.1.13,2013-07-28 06:19:00,
2013-07-28 02:25:00,66.0,64.8,29.93,West,266,0.0,0.0,96,0.00,,,0.00,Wunderground v.1.13,2013-07-28 06:25:00,
2013-07-28 02:30:00,65.9,64.7,29.93,West,266,0.0,0.0,96,0.00,,,0.00,Wunderground v.1.13,2013-07-28 06:30:00,
2013-07-28 02:36:00,65.9,64.7,29.93,West,266,0.0,0.0,96,0.00,,,0.00,Wunderground v.1.13,2013-07-28 06:36:00,
2013-07-28 02:42:00,65.9,64.7,29.93,West,266,0.0,0.0,96,0.00,,,0.00,Wunderground v.1.13,2013-07-28 06:42:00,
2013-07-28 02:48:00,65.9,64.7,29.93,West,266,0.0,0.0,96,0.00,,,0.00,Wunderground v.1.13,2013-07-28 06:48:00,
2013-07-28 02:53:00,65.9,64.7,29.93,West,266,0.0,0.0,96,0.00,,,0.00,Wunderground v.1.13,2013-07-28 06:53:00,
2013-07-28 02:59:00,65.9,64.7,29.93,West,266,0.0,0.0,96,0.00,,,0.00,Wunderground v.1.13,2013-07-28 06:59:00,
2013-07-28 03:05:00,66.1,64.9,29.93,West,266,0.0,0.0,96,0.00,,,0.00,Wunderground v.1.13,2013-07-28 07:05:00,
2013-07-28 03:10:00,66.1,64.9,29.93,West,266,0.0,0.0,96,0.00,,,0.00,Wunderground v.1.13,2013-07-28 07:10:00,
2013-07-28 03:15:00,66.1,64.9,29.93,West,266,0.0,0.0,96,0.00,,,0.00,Wunderground v.1.13,2013-07-28 07:15:00,
2013-07-28 03:21:00,66.1,64.9,29.93,West,266,0.0,0.0,96,0.00,,,0.00,Wunderground v.1.13,2013-07-28 07:21:00,
2013-07-28 03:27:00,66.0,64.8,29.93,West,266,0.0,0.0,96,0.00,,,0.00,Wunderground v.1.13,2013-07-28 07:27:00,
2013-07-28 03:32:00,66.0,64.8,29.93,West,266,0.0,0.0,96,0.00,,,0.00,Wunderground v.1.13,2013-07-28 07:32:00,
2013-07-28 03:37:00,66.1,65.2,29.93,West,266,0.0,0.0,97,0.00,,,0.00,Wunderground v.1.13,2013-07-28 07:37:00,
2013-07-28 03:43:00,66.1,65.2,29.93,West,266,0.0,0.0,97,0.00,,,0.00,Wunderground v.1.13,2013-07-28 07:43:00,
2013-07-28 03:48:00,66.2,65.3,29.93,West,266,0.0,0.0,97,0.00,,,0.00,Wunderground v.1.13,2013-07-28 07:48:00,
2013-07-28 03:54:00,66.3,65.4,29.93,West,266,0.0,0.0,97,0.00,,,0.00,Wunderground v.1.13,2013-07-28 07:54:00,
2013-07-28 03:59:00,66.3,65.4,29.94,West,266,0.0,0.0,97,0.00,,,0.00,Wunderground v.1.13,2013-07-28 07:59:00,
2013-07-28 04:05:00,66.3,65.4,29.93,West,266,0.0,0.0,97,0.00,,,0.00,Wunderground v.1.13,2013-07-28 08:05:00,
2013-07-28 04:10:00,66.3,65.4,29.94,West,266,0.0,0.0,97,0.00,,,0.00,Wunderground v.1.13,2013-07-28 08:10:00,
2013-07-28 04:16:00,66.4,65.5,29.94,West,266,0.0,0.0,97,0.00,,,0.00,Wunderground v.1.13,2013-07-28 08:16:00,
2013-07-28 04:21:00,66.3,65.4,29.94,West,266,0.0,0.0,97,0.00,,,0.00,Wunderground v.1.13,2013-07-28 08:21:00,
2013-07-28 04:27:00,66.3,65.4,29.93,West,266,0.0,0.0,97,0.00,,,0.00,Wunderground v.1.13,2013-07-28 08:27:00,
2013-07-28 04:32:00,66.3,65.4,29.93,West,266,0.0,0.0,97,0.00,,,0.00,Wunderground v.1.13,2013-07-28 08:32:00,
2013-07-28 04:38:00,66.2,65.3,29.94,West,266,0.0,0.0,97,0.00,,,0.00,Wunderground v.1.13,2013-07-28 08:38:00,
2013-07-28 04:44:00,66.2,65.3,29.94,West,266,0.0,0.0,97,0.00,,,0.00,Wunderground v.1.13,2013-07-28 08:44:00,
2013-07-28 04:49:00,66.1,65.2,29.94,West,266,0.0,0.0,97,0.00,,,0.00,Wunderground v.1.13,2013-07-28 08:49:00,
2013-07-28 04:54:00,66.0,65.1,29.94,West,266,0.0,0.0,97,0.00,,,0.00,Wunderground v.1.13,2013-07-28 08:54:00,
2013-07-28 05:00:00,65.9,65.0,29.94,West,266,0.0,0.0,97,0.00,,,0.00,Wunderground v.1.13,2013-07-28 09:00:00,
2013-07-28 05:06:00,65.7,64.8,29.94,West,266,0.0,0.0,97,0.00,,,0.00,Wunderground v.1.13,2013-07-28 09:06:00,
2013-07-28 05:11:00,65.7,64.8,29.95,West,266,0.0,0.0,97,0.00,,,0.00,Wunderground v.1.13,2013-07-28 09:11:00,
2013-07-28 05:17:00,65.6,64.7,29.95,West,266,0.0,0.0,97,0.00,,,0.00,Wunderground v.1.13,2013-07-28 09:17:00,
2013-07-28 05:22:00,65.4,64.5,29.95,West,266,0.0,0.0,97,0.00,,,0.00,Wunderground v.1.13,2013-07-28 09:22:00,
2013-07-28 05:28:00,65.3,64.4,29.95,West,266,0.0,0.0,97,0.00,,,0.00,Wunderground v.1.13,2013-07-28 09:28:00,
2013-07-28 05:33:00,65.2,64.3,29.95,West,266,0.0,0.0,97,0.00,,,0.00,Wunderground v.1.13,2013-07-28 09:33:00,
2013-07-28 05:38:00,65.1,64.2,29.95,West,266,0.0,0.0,97,0.00,,,0.00,Wunderground v.1.13,2013-07-28 09:38:00,
2013-07-28 05:44:00,64.9,64.0,29.96,West,266,0.0,0.0,97,0.00,,,0.00,Wunderground v.1.13,2013-07-28 09:44:00,
2013-07-28 05:49:00,64.8,63.9,29.96,West,266,0.0,0.0,97,0.00,,,0.00,Wunderground v.1.13,2013-07-28 09:49:00,
2013-07-28 05:54:00,64.7,63.8,29.96,West,266,0.0,0.0,97,0.00,,,0.00,Wunderground v.1.13,2013-07-28 09:54:00,
2013-07-28 06:00:00,64.7,63.8,29.96,West,266,0.0,0.0,97,0.00,,,0.00,Wunderground v.1.13,2013-07-28 10:00:00,
2013-07-28 06:05:00,64.9,64.0,29.96,West,266,0.0,0.0,97,0.00,,,0.00,Wunderground v.1.13,2013-07-28 10:05:00,
2013-07-28 06:11:00,65.0,64.1,29.97,West,266,0.0,0.0,97,0.00,,,0.00,Wunderground v.1.13,2013-07-28 10:11:00,
2013-07-28 06:16:00,65.1,64.2,29.96,West,266,0.0,0.0,97,0.00,,,0.00,Wunderground v.1.13,2013-07-28 10:16:00,
2013-07-28 06:21:00,65.1,64.2,29.97,West,266,0.0,0.0,97,0.00,,,0.00,Wunderground v.1.13,2013-07-28 10:21:00,
2013-07-28 06:26:00,65.1,64.2,29.97,West,266,0.0,0.0,97,0.00,,,0.00,Wunderground v.1.13,2013-07-28 10:26:00,
2013-07-28 06:32:00,65.0,64.1,29.97,West,266,0.0,0.0,97,0.00,,,0.00,Wunderground v.1.13,2013-07-28 10:32:00,
2013-07-28 06:38:00,65.0,64.1,29.97,West,266,0.0,0.0,97,0.00,,,0.00,Wunderground v.1.13,2013-07-28 10:38:00,
2013-07-28 06:43:00,65.0,64.1,29.97,West,266,0.0,0.0,97,0.00,,,0.00,Wunderground v.1.13,2013-07-28 10:43:00,
2013-07-28 06:48:00,65.0,64.1,29.98,West,266,0.0,0.0,97,0.00,,,0.00,Wunderground v.1.13,2013-07-28 10:48:00,
2013-07-28 06:53:00,64.9,64.0,29.98,West,266,0.0,0.0,97,0.00,,,0.00,Wunderground v.1.13,2013-07-28 10:53:00,
2013-07-28 06:59:00,64.8,63.9,29.98,West,266,0.0,0.0,97,0.00,,,0.00,Wunderground v.1.13,2013-07-28 10:59:00,
2013-07-28 07:05:00,64.8,63.9,29.98,West,266,0.0,0.0,97,0.00,,,0.00,Wunderground v.1.13,2013-07-28 11:05:00,
2013-07-28 07:10:00,65.0,64.1,29.98,West,266,0.0,0.0,97,0.00,,,0.00,Wunderground v.1.13,2013-07-28 11:10:00,
2013-07-28 07:16:00,65.4,64.8,29.98,West,266,0.0,0.0,98,0.00,,,0.00,Wunderground v.1.13,2013-07-28 11:16:00,
2013-07-28 07:22:00,65.6,65.0,29.99,West,264,0.0,2.0,98,0.00,,,0.00,Wunderground v.1.13,2013-07-28 11:22:00,
2013-07-28 07:27:00,65.8,65.2,29.99,West,264,0.0,0.0,98,0.00,,,0.00,Wunderground v.1.13,2013-07-28 11:27:00,
2013-07-28 07:32:00,65.8,65.2,29.99,West,264,1.0,3.0,98,0.00,,,0.00,Wunderground v.1.13,2013-07-28 11:32:00,
2013-07-28 07:38:00,65.8,65.2,29.99,West,264,0.0,1.0,98,0.00,,,0.00,Wunderground v.1.13,2013-07-28 11:38:00,
2013-07-28 07:43:00,66.1,65.5,30.00,West,264,0.0,0.0,98,0.00,,,0.00,Wunderground v.1.13,2013-07-28 11:43:00,
2013-07-28 07:49:00,66.3,65.7,30.00,West,264,0.0,0.0,98,0.00,,,0.00,Wunderground v.1.13,2013-07-28 11:49:00,
2013-07-28 07:54:00,66.6,66.0,30.00,West,264,0.0,0.0,98,0.00,,,0.00,Wunderground v.1.13,2013-07-28 11:54:00,
2013-07-28 07:59:00,66.9,66.3,30.00,West,264,0.0,0.0,98,0.00,,,0.00,Wunderground v.1.13,2013-07-28 11:59:00,
2013-07-28 08:04:00,67.1,66.5,30.00,West,264,0.0,0.0,98,0.00,,,0.00,Wunderground v.1.13,2013-07-28 12:04:00,
2013-07-28 08:10:00,67.3,66.7,30.00,West,264,0.0,0.0,98,0.00,,,0.00,Wunderground v.1.13,2013-07-28 12:10:00,
2013-07-28 08:15:00,67.7,67.1,30.00,West,264,0.0,0.0,98,0.00,,,0.00,Wunderground v.1.13,2013-07-28 12:15:00,
2013-07-28 08:21:00,67.9,67.3,30.00,West,264,0.0,0.0,98,0.00,,,0.00,Wunderground v.1.13,2013-07-28 12:21:00,
2013-07-28 08:27:00,68.3,67.7,30.01,West,264,0.0,0.0,98,0.00,,,0.00,Wunderground v.1.13,2013-07-28 12:27:00,
2013-07-28 08:33:00,68.7,68.1,30.01,West,264,0.0,0.0,98,0.00,,,0.00,Wunderground v.1.13,2013-07-28 12:33:00,
2013-07-28 08:38:00,68.7,67.8,30.01,West,264,1.0,3.0,97,0.00,,,0.00,Wunderground v.1.13,2013-07-28 12:38:00,
2013-07-28 08:44:00,68.8,67.9,30.01,West,264,2.0,5.0,97,0.00,,,0.00,Wunderground v.1.13,2013-07-28 12:44:00,
2013-07-28 08:49:00,68.9,68.0,30.01,West,264,1.0,2.0,97,0.00,,,0.00,Wunderground v.1.13,2013-07-28 12:49:00,
2013-07-28 08:55:00,69.2,68.3,30.01,West,264,1.0,1.0,97,0.00,,,0.00,Wunderground v.1.13,2013-07-28 12:55:00,
2013-07-28 09:00:00,69.1,67.9,30.01,West,264,1.0,3.0,96,0.00,,,0.00,Wunderground v.1.13,2013-07-28 13:00:00,
2013-07-28 09:06:00,69.2,67.7,30.01,West,264,1.0,3.0,95,0.00,,,0.00,Wunderground v.1.13,2013-07-28 13:06:00,
2013-07-28 09:11:00,69.4,67.3,30.02,West,264,2.0,3.0,93,0.00,,,0.00,Wunderground v.1.13,2013-07-28 13:11:00,
2013-07-28 09:16:00,69.8,67.4,30.01,West,264,2.0,3.0,92,0.00,,,0.00,Wunderground v.1.13,2013-07-28 13:16:00,
2013-07-28 09:22:00,70.3,67.2,30.01,West,264,2.0,3.0,90,0.00,,,0.00,Wunderground v.1.13,2013-07-28 13:22:00,
2013-07-28 09:27:00,70.6,66.9,30.01,West,264,2.0,4.0,88,0.00,,,0.00,Wunderground v.1.13,2013-07-28 13:27:00,
2013-07-28 09:32:00,71.0,66.6,30.01,West,264,2.0,7.0,86,0.00,,,0.00,Wunderground v.1.13,2013-07-28 13:32:00,
2013-07-28 09:37:00,71.3,65.9,30.01,West,267,3.0,6.0,83,0.00,,,0.00,Wunderground v.1.13,2013-07-28 13:37:00,
2013-07-28 09:43:00,71.8,66.0,30.01,West,267,2.0,5.0,82,0.00,,,0.00,Wunderground v.1.13,2013-07-28 13:43:00,
2013-07-28 09:48:00,72.4,66.6,30.01,West,267,1.0,4.0,82,0.00,,,0.00,Wunderground v.1.13,2013-07-28 13:48:00,
2013-07-28 09:53:00,72.8,66.3,30.01,West,268,2.0,6.0,80,0.00,,,0.00,Wunderground v.1.13,2013-07-28 13:53:00,
2013-07-28 09:58:00,72.9,66.4,30.01,WNW,298,3.0,6.0,80,0.00,,,0.00,Wunderground v.1.13,2013-07-28 13:58:00,
2013-07-28 10:04:00,72.9,67.1,30.01,NW,307,4.0,10.0,82,0.00,,,0.00,Wunderground v.1.13,2013-07-28 14:04:00,
2013-07-28 10:09:00,73.1,66.9,30.01,NW,324,4.0,5.0,81,0.00,,,0.00,Wunderground v.1.13,2013-07-28 14:09:00,
2013-07-28 10:14:00,73.4,67.6,30.01,NW,316,4.0,7.0,82,0.00,,,0.00,Wunderground v.1.13,2013-07-28 14:14:00,
2013-07-28 10:20:00,73.6,67.4,30.02,NW,319,3.0,3.0,81,0.00,,,0.00,Wunderground v.1.13,2013-07-28 14:20:00,
2013-07-28 10:26:00,73.5,67.3,30.02,NW,315,3.0,6.0,81,0.00,,,0.00,Wunderground v.1.13,2013-07-28 14:26:00,
2013-07-28 10:31:00,73.3,66.8,30.02,NW,313,3.0,3.0,80,0.00,,,0.00,Wunderground v.1.13,2013-07-28 14:31:00,
2013-07-28 10:37:00,73.5,66.9,30.02,NW,313,2.0,4.0,80,0.00,,,0.00,Wunderground v.1.13,2013-07-28 14:37:00,
2013-07-28 10:42:00,73.7,67.5,30.02,NW,313,2.0,6.0,81,0.00,,,0.00,Wunderground v.1.13,2013-07-28 14:42:00,
2013-07-28 10:47:00,74.3,67.7,30.02,NW,313,3.0,3.0,80,0.00,,,0.00,Wunderground v.1.13,2013-07-28 14:47:00,
2013-07-28 10:53:00,75.3,68.3,30.02,NW,312,2.0,3.0,79,0.00,,,0.00,Wunderground v.1.13,2013-07-28 14:53:00,
2013-07-28 10:58:00,75.8,68.1,30.02,NW,311,1.0,2.0,77,0.00,,,0.00,Wunderground v.1.13,2013-07-28 14:58:00,
2013-07-28 11:04:00,76.8,68.7,30.02,NW,312,0.0,1.0,76,0.00,,,0.00,Wunderground v.1.13,2013-07-28 15:04:00,
2013-07-28 11:09:00,77.6,68.3,30.02,NW,312,0.0,4.0,73,0.00,,,0.00,Wunderground v.1.13,2013-07-28 15:09:00,
2013-07-28 11:15:00,77.6,67.4,30.02,NW,312,1.0,1.0,71,0.00,,,0.00,Wunderground v.1.13,2013-07-28 15:15:00,
2013-07-28 11:20:00,77.8,68.0,30.02,NW,313,1.0,1.0,72,0.00,,,0.00,Wunderground v.1.13,2013-07-28 15:20:00,
2013-07-28 11:25:00,78.4,68.2,30.02,NW,313,2.0,2.0,71,0.00,,,0.00,Wunderground v.1.13,2013-07-28 15:25:00,
2013-07-28 11:31:00,79.6,69.0,30.02,NW,313,2.0,2.0,70,0.00,,,0.00,Wunderground v.1.13,2013-07-28 15:31:00,
2013-07-28 11:36:00,80.7,68.7,30.02,NW,313,2.0,2.0,67,0.00,,,0.00,Wunderground v.1.13,2013-07-28 15:36:00,
2013-07-28 11:42:00,81.1,69.5,30.02,NW,313,1.0,3.0,68,0.00,,,0.00,Wunderground v.1.13,2013-07-28 15:42:00,
2013-07-28 11:48:00,81.8,69.3,30.02,NW,311,1.0,7.0,66,0.00,,,0.00,Wunderground v.1.13,2013-07-28 15:48:00,
2013-07-28 11:53:00,81.6,68.7,30.02,WNW,300,3.0,7.0,65,0.00,,,0.00,Wunderground v.1.13,2013-07-28 15:53:00,
2013-07-28 11:58:00,80.9,68.5,30.02,West,265,4.0,7.0,66,0.00,,,0.00,Wunderground v.1.13,2013-07-28 15:58:00,
2013-07-28 12:03:00,80.3,68.8,30.02,West,265,3.0,4.0,68,0.00,,,0.00,Wunderground v.1.13,2013-07-28 16:03:00,
2013-07-28 12:09:00,79.7,68.2,30.02,WSW,250,3.0,9.0,68,0.00,,,0.00,Wunderground v.1.13,2013-07-28 16:09:00,
2013-07-28 12:14:00,79.5,67.6,30.03,WSW,253,4.0,6.0,67,0.00,,,0.00,Wunderground v.1.13,2013-07-28 16:14:00,
2013-07-28 12:20:00,79.5,68.4,30.03,West,270,5.0,6.0,69,0.00,,,0.00,Wunderground v.1.13,2013-07-28 16:20:00,
2013-07-28 12:25:00,80.1,68.6,30.03,West,275,5.0,6.0,68,0.00,,,0.00,Wunderground v.1.13,2013-07-28 16:25:00,
2013-07-28 12:30:00,80.7,68.3,30.03,West,276,5.0,5.0,66,0.00,,,0.00,Wunderground v.1.13,2013-07-28 16:30:00,
2013-07-28 12:35:00,80.2,68.2,30.03,West,277,6.0,6.0,67,0.00,,,0.00,Wunderground v.1.13,2013-07-28 16:35:00,
2013-07-28 12:40:00,80.1,69.4,30.02,West,261,5.0,5.0,70,0.00,,,0.00,Wunderground v.1.13,2013-07-28 16:40:00,
2013-07-28 12:46:00,80.7,69.6,30.02,West,276,4.0,5.0,69,0.00,,,0.00,Wunderground v.1.13,2013-07-28 16:46:00,
2013-07-28 12:52:00,81.6,69.1,30.02,West,267,3.0,8.0,66,0.00,,,0.00,Wunderground v.1.13,2013-07-28 16:52:00,
2013-07-28 12:58:00,81.2,68.8,30.02,WSW,238,4.0,8.0,66,0.00,,,0.00,Wunderground v.1.13,2013-07-28 16:58:00,
2013-07-28 13:03:00,81.5,68.6,30.02,WNW,284,5.0,10.0,65,0.00,,,0.00,Wunderground v.1.13,2013-07-28 17:03:00,
2013-07-28 13:08:00,81.3,69.7,30.02,WNW,288,5.0,5.0,68,0.00,,,0.00,Wunderground v.1.13,2013-07-28 17:08:00,
2013-07-28 13:13:00,81.6,69.6,30.02,WNW,286,4.0,5.0,67,0.00,,,0.00,Wunderground v.1.13,2013-07-28 17:13:00,
2013-07-28 13:18:00,81.5,68.6,30.02,West,281,5.0,7.0,65,0.00,,,0.00,Wunderground v.1.13,2013-07-28 17:18:00,
2013-07-28 13:23:00,81.0,67.7,30.02,WNW,294,6.0,7.0,64,0.00,,,0.00,Wunderground v.1.13,2013-07-28 17:23:00,
2013-07-28 13:29:00,81.4,68.1,30.02,WNW,298,5.0,9.0,64,0.00,,,0.00,Wunderground v.1.13,2013-07-28 17:29:00,
2013-07-28 13:34:00,81.8,68.4,30.01,WNW,302,6.0,7.0,64,0.00,,,0.00,Wunderground v.1.13,2013-07-28 17:34:00,
2013-07-28 13:39:00,82.5,69.1,30.02,WNW,290,6.0,8.0,64,0.00,,,0.00,Wunderground v.1.13,2013-07-28 17:39:00,
2013-07-28 13:44:00,83.0,69.1,30.01,WNW,296,5.0,10.0,63,0.00,,,0.00,Wunderground v.1.13,2013-07-28 17:44:00,
2013-07-28 13:49:00,82.9,67.1,30.01,NW,324,5.0,8.0,59,0.00,,,0.00,Wunderground v.1.13,2013-07-28 17:49:00,
2013-07-28 13:54:00,81.8,67.0,30.01,NNW,328,6.0,10.0,61,0.00,,,0.00,Wunderground v.1.13,2013-07-28 17:54:00,
2013-07-28 14:00:00,80.1,66.8,30.01,NW,306,7.0,7.0,64,0.00,,,0.00,Wunderground v.1.13,2013-07-28 18:00:00,
2013-07-28 14:05:00,80.2,67.4,30.01,WNW,300,6.0,6.0,65,0.00,,,0.00,Wunderground v.1.13,2013-07-28 18:05:00,
2013-07-28 14:10:00,80.5,66.7,30.01,NW,319,6.0,6.0,63,0.00,,,0.00,Wunderground v.1.13,2013-07-28 18:10:00,
2013-07-28 14:16:00,79.9,66.2,30.01,NW,315,6.0,6.0,63,0.00,,,0.00,Wunderground v.1.13,2013-07-28 18:16:00,
2013-07-28 14:22:00,80.3,67.9,30.01,WNW,298,5.0,7.0,66,0.00,,,0.00,Wunderground v.1.13,2013-07-28 18:22:00,
2013-07-28 14:27:00,80.5,66.3,30.00,NW,304,6.0,6.0,62,0.00,,,0.00,Wunderground v.1.13,2013-07-28 18:27:00,
2013-07-28 14:33:00,80.1,65.9,30.01,NW,305,6.0,7.0,62,0.00,,,0.00,Wunderground v.1.13,2013-07-28 18:33:00,
2013-07-28 14:38:00,80.5,66.7,30.01,WNW,299,5.0,6.0,63,0.00,,,0.00,Wunderground v.1.13,2013-07-28 18:38:00,
2013-07-28 14:44:00,80.6,66.4,30.00,WNW,300,6.0,10.0,62,0.00,,,0.00,Wunderground v.1.13,2013-07-28 18:44:00,
2013-07-28 14:49:00,81.7,67.4,30.00,WNW,294,6.0,9.0,62,0.00,,,0.00,Wunderground v.1.13,2013-07-28 18:49:00,
2013-07-28 14:54:00,82.3,67.0,30.00,WNW,298,5.0,10.0,60,0.00,,,0.00,Wunderground v.1.13,2013-07-28 18:54:00,
2013-07-28 15:00:00,81.9,67.1,30.00,WNW,301,6.0,6.0,61,0.00,,,0.00,Wunderground v.1.13,2013-07-28 19:00:00,
2013-07-28 15:05:00,82.2,67.9,30.00,WNW,291,5.0,5.0,62,0.00,,,0.00,Wunderground v.1.13,2013-07-28 19:05:00,
2013-07-28 15:10:00,82.6,67.3,30.00,WNW,290,5.0,6.0,60,0.00,,,0.00,Wunderground v.1.13,2013-07-28 19:10:00,
2013-07-28 15:16:00,82.8,67.5,30.00,WNW,291,5.0,5.0,60,0.00,,,0.00,Wunderground v.1.13,2013-07-28 19:16:00,
2013-07-28 15:22:00,82.5,67.7,30.00,WNW,294,5.0,10.0,61,0.00,,,0.00,Wunderground v.1.13,2013-07-28 19:22:00,
2013-07-28 15:27:00,82.2,67.4,30.00,WNW,294,6.0,6.0,61,0.00,,,0.00,Wunderground v.1.13,2013-07-28 19:27:00,
2013-07-28 15:32:00,82.1,66.8,30.00,NW,320,6.0,10.0,60,0.00,,,0.00,Wunderground v.1.13,2013-07-28 19:32:00,
2013-07-28 15:37:00,82.0,67.2,30.00,WNW,284,7.0,9.0,61,0.00,,,0.00,Wunderground v.1.13,2013-07-28 19:37:00,
2013-07-28 15:43:00,82.0,67.7,30.00,WNW,300,5.0,7.0,62,0.00,,,0.00,Wunderground v.1.13,2013-07-28 19:43:00,
2013-07-28 15:48:00,81.9,66.2,30.00,WNW,288,6.0,10.0,59,0.00,,,0.00,Wunderground v.1.13,2013-07-28 19:48:00,
2013-07-28 15:53:00,81.5,66.8,29.99,NW,311,6.0,9.0,61,0.00,,,0.00,Wunderground v.1.13,2013-07-28 19:53:00,
2013-07-28 15:58:00,81.1,65.4,29.99,NW,306,6.0,7.0,59,0.00,,,0.00,Wunderground v.1.13,2013-07-28 19:58:00,
2013-07-28 16:03:00,81.0,66.3,29.99,WNW,291,8.0,11.0,61,0.00,,,0.00,Wunderground v.1.13,2013-07-28 20:03:00,
2013-07-28 16:08:00,81.4,65.7,29.99,WNW,288,9.0,13.0,59,0.00,,,0.00,Wunderground v.1.13,2013-07-28 20:08:00,
2013-07-28 16:14:00,82.4,66.6,29.99,WNW,284,7.0,13.0,59,0.00,,,0.00,Wunderground v.1.13,2013-07-28 20:14:00,
2013-07-28 16:19:00,82.8,67.0,29.99,NW,313,8.0,10.0,59,0.00,,,0.00,Wunderground v.1.13,2013-07-28 20:19:00,
2013-07-28 16:25:00,82.8,67.5,29.99,WNW,284,6.0,6.0,60,0.00,,,0.00,Wunderground v.1.13,2013-07-28 20:25:00,
2013-07-28 16:30:00,83.0,66.7,29.99,WNW,291,6.0,6.0,58,0.00,,,0.00,Wunderground v.1.13,2013-07-28 20:30:00,
2013-07-28 16:36:00,82.9,66.6,29.99,NW,309,7.0,7.0,58,0.00,,,0.00,Wunderground v.1.13,2013-07-28 20:36:00,
2013-07-28 16:42:00,82.7,65.9,29.99,WNW,301,6.0,10.0,57,0.00,,,0.00,Wunderground v.1.13,2013-07-28 20:42:00,
2013-07-28 16:47:00,82.6,67.3,29.99,NW,325,6.0,7.0,60,0.00,,,0.00,Wunderground v.1.13,2013-07-28 20:47:00,
2013-07-28 16:52:00,82.2,65.4,29.99,NW,320,6.0,9.0,57,0.00,,,0.00,Wunderground v.1.13,2013-07-28 20:52:00,
2013-07-28 16:57:00,82.0,66.7,29.99,WNW,298,5.0,6.0,60,0.00,,,0.00,Wunderground v.1.13,2013-07-28 20:57:00,
2013-07-28 17:03:00,81.6,66.4,30.00,NW,315,9.0,12.0,60,0.00,,,0.00,Wunderground v.1.13,2013-07-28 21:03:00,
2013-07-28 17:08:00,81.4,66.7,30.00,WNW,299,9.0,9.0,61,0.00,,,0.00,Wunderground v.1.13,2013-07-28 21:08:00,
2013-07-28 17:14:00,81.6,66.4,30.00,WNW,299,6.0,8.0,60,0.00,,,0.00,Wunderground v.1.13,2013-07-28 21:14:00,
2013-07-28 17:19:00,81.5,65.8,30.00,NW,317,6.0,7.0,59,0.00,,,0.00,Wunderground v.1.13,2013-07-28 21:19:00,
2013-07-28 17:24:00,81.3,66.6,30.00,NW,325,6.0,6.0,61,0.00,,,0.00,Wunderground v.1.13,2013-07-28 21:24:00,
2013-07-28 17:29:00,81.2,66.0,30.00,WNW,293,6.0,7.0,60,0.00,,,0.00,Wunderground v.1.13,2013-07-28 21:29:00,
2013-07-28 17:35:00,81.5,65.8,30.00,WNW,299,6.0,6.0,59,0.00,,,0.00,Wunderground v.1.13,2013-07-28 21:35:00,
2013-07-28 17:41:00,81.9,66.2,30.00,WNW,298,5.0,7.0,59,0.00,,,0.00,Wunderground v.1.13,2013-07-28 21:41:00,
2013-07-28 17:46:00,82.2,65.4,30.00,WNW,292,4.0,7.0,57,0.00,,,0.00,Wunderground v.1.13,2013-07-28 21:46:00,
2013-07-28 17:52:00,82.3,65.5,30.00,WNW,292,5.0,5.0,57,0.00,,,0.00,Wunderground v.1.13,2013-07-28 21:52:00,
2013-07-28 17:57:00,82.2,66.0,30.00,WNW,299,5.0,7.0,58,0.00,,,0.00,Wunderground v.1.13,2013-07-28 21:57:00,
2013-07-28 18:03:00,81.9,64.7,29.99,West,277,6.0,8.0,56,0.00,,,0.00,Wunderground v.1.13,2013-07-28 22:03:00,
2013-07-28 18:08:00,81.8,65.1,29.99,West,281,5.0,6.0,57,0.00,,,0.00,Wunderground v.1.13,2013-07-28 22:08:00,
2013-07-28 18:14:00,81.6,64.9,29.99,WNW,284,5.0,7.0,57,0.00,,,0.00,Wunderground v.1.13,2013-07-28 22:14:00,
2013-07-28 18:19:00,81.5,64.8,29.99,WNW,285,5.0,5.0,57,0.00,,,0.00,Wunderground v.1.13,2013-07-28 22:19:00,
2013-07-28 18:25:00,81.4,63.7,29.99,WNW,285,4.0,4.0,55,0.00,,,0.00,Wunderground v.1.13,2013-07-28 22:25:00,
2013-07-28 18:30:00,81.4,65.2,29.99,WNW,285,4.0,4.0,58,0.00,,,0.00,Wunderground v.1.13,2013-07-28 22:30:00,
2013-07-28 18:36:00,81.3,64.6,29.99,WNW,289,4.0,4.0,57,0.00,,,0.00,Wunderground v.1.13,2013-07-28 22:36:00,
2013-07-28 18:41:00,81.1,64.4,29.99,WNW,288,4.0,4.0,57,0.00,,,0.00,Wunderground v.1.13,2013-07-28 22:41:00,
2013-07-28 18:46:00,81.1,63.9,29.99,WNW,288,4.0,6.0,56,0.00,,,0.00,Wunderground v.1.13,2013-07-28 22:46:00,
2013-07-28 18:52:00,81.1,63.9,29.99,WNW,289,3.0,6.0,56,0.00,,,0.00,Wunderground v.1.13,2013-07-28 22:52:00,
2013-07-28 18:57:00,81.1,63.4,29.99,WNW,289,3.0,7.0,55,0.00,,,0.00,Wunderground v.1.13,2013-07-28 22:57:00,
2013-07-28 19:02:00,81.0,62.8,30.00,WNW,288,3.0,4.0,54,0.00,,,0.00,Wunderground v.1.13,2013-07-28 23:02:00,
2013-07-28 19:08:00,80.9,64.7,30.00,WNW,288,3.0,5.0,58,0.00,,,0.00,Wunderground v.1.13,2013-07-28 23:08:00,
2013-07-28 19:14:00,80.6,62.9,30.00,WNW,302,4.0,6.0,55,0.00,,,0.00,Wunderground v.1.13,2013-07-28 23:14:00,
2013-07-28 19:19:00,80.5,63.9,30.00,WNW,302,4.0,4.0,57,0.00,,,0.00,Wunderground v.1.13,2013-07-28 23:19:00,
2013-07-28 19:24:00,80.3,63.7,30.01,WNW,302,3.0,5.0,57,0.00,,,0.00,Wunderground v.1.13,2013-07-28 23:24:00,
2013-07-28 19:30:00,80.1,62.5,30.01,WNW,302,4.0,4.0,55,0.00,,,0.00,Wunderground v.1.13,2013-07-28 23:30:00,
2013-07-28 19:35:00,79.8,62.7,30.01,WNW,301,4.0,4.0,56,0.00,,,0.00,Wunderground v.1.13,2013-07-28 23:35:00,
2013-07-28 19:41:00,79.5,62.9,30.01,WNW,301,2.0,4.0,57,0.00,,,0.00,Wunderground v.1.13,2013-07-28 23:41:00,
2013-07-28 19:46:00,79.4,64.3,30.01,WNW,301,1.0,1.0,60,0.00,,,0.00,Wunderground v.1.13,2013-07-28 23:46:00,
2013-07-28 19:52:00,79.1,65.0,30.01,WNW,301,0.0,1.0,62,0.00,,,0.00,Wunderground v.1.13,2013-07-28 23:52:00,
2013-07-28 19:57:00,78.9,65.2,30.01,WNW,301,1.0,3.0,63,0.00,,,0.00,Wunderground v.1.13,2013-07-28 23:57:00,
2013-07-28 20:03:00,78.7,66.8,30.01,WNW,301,1.0,1.0,67,0.00,,,0.00,Wunderground v.1.13,2013-07-29 00:03:00,
2013-07-28 20:08:00,78.4,66.5,30.02,WNW,301,0.0,1.0,67,0.00,,,0.00,Wunderground v.1.13,2013-07-29 00:08:00,
2013-07-28 20:14:00,78.1,67.1,30.02,WNW,301,0.0,0.0,69,0.00,,,0.00,Wunderground v.1.13,2013-07-29 00:14:00,
2013-07-28 20:20:00,77.4,67.3,30.02,WNW,301,0.0,0.0,71,0.00,,,0.00,Wunderground v.1.13,2013-07-29 00:20:00,
2013-07-28 20:25:00,76.5,67.2,30.02,WNW,301,0.0,0.0,73,0.00,,,0.00,Wunderground v.1.13,2013-07-29 00:25:00,
2013-07-28 20:31:00,75.4,66.5,30.02,WNW,301,0.0,0.0,74,0.00,,,0.00,Wunderground v.1.13,2013-07-29 00:31:00,
2013-07-28 20:37:00,74.2,65.8,30.02,WNW,301,0.0,0.0,75,0.00,,,0.00,Wunderground v.1.13,2013-07-29 00:37:00,
2013-07-28 20:42:00,73.4,65.7,30.02,WNW,301,0.0,0.0,77,0.00,,,0.00,Wunderground v.1.13,2013-07-29 00:42:00,
2013-07-28 20:48:00,72.6,65.3,30.02,WNW,301,0.0,0.0,78,0.00,,,0.00,Wunderground v.1.13,2013-07-29 00:48:00,
2013-07-28 20:53:00,72.0,65.1,30.03,WNW,301,0.0,0.0,79,0.00,,,0.00,Wunderground v.1.13,2013-07-29 00:53:00,
2013-07-28 20:59:00,71.3,64.8,30.03,WNW,301,0.0,0.0,80,0.00,,,0.00,Wunderground v.1.13,2013-07-29 00:59:00,
2013-07-28 21:04:00,70.6,64.5,30.03,WNW,301,0.0,0.0,81,0.00,,,0.00,Wunderground v.1.13,2013-07-29 01:04:00,
2013-07-28 21:10:00,69.9,64.2,30.03,WNW,301,0.0,0.0,82,0.00,,,0.00,Wunderground v.1.13,2013-07-29 01:10:00,
2013-07-28 21:15:00,69.4,63.7,30.03,WNW,301,0.0,0.0,82,0.00,,,0.00,Wunderground v.1.13,2013-07-29 01:15:00,
2013-07-28 21:20:00,68.8,63.4,30.04,WNW,301,0.0,0.0,83,0.00,,,0.00,Wunderground v.1.13,2013-07-29 01:20:00,
2013-07-28 21:26:00,68.2,63.2,30.04,WNW,301,0.0,0.0,84,0.00,,,0.00,Wunderground v.1.13,2013-07-29 01:26:00,
2013-07-28 21:31:00,67.7,63.0,30.04,WNW,300,0.0,0.0,85,0.00,,,0.00,Wunderground v.1.13,2013-07-29 01:31:00,
2013-07-28 21:37:00,67.2,62.5,30.04,WNW,301,0.0,0.0,85,0.00,,,0.00,Wunderground v.1.13,2013-07-29 01:37:00,
2013-07-28 21:42:00,66.9,62.6,30.05,WNW,301,0.0,0.0,86,0.00,,,0.00,Wunderground v.1.13,2013-07-29 01:42:00,
2013-07-28 21:47:00,66.5,62.5,30.05,WNW,301,0.0,0.0,87,0.00,,,0.00,Wunderground v.1.13,2013-07-29 01:47:00,
2013-07-28 21:53:00,66.1,62.1,30.06,WNW,301,0.0,0.0,87,0.00,,,0.00,Wunderground v.1.13,2013-07-29 01:53:00,
2013-07-28 21:58:00,65.9,62.2,30.06,WNW,301,0.0,0.0,88,0.00,,,0.00,Wunderground v.1.13,2013-07-29 01:58:00,
2013-07-28 22:03:00,65.6,61.9,30.07,WNW,301,0.0,0.0,88,0.00,,,0.00,Wunderground v.1.13,2013-07-29 02:03:00,
2013-07-28 22:08:00,65.3,61.7,30.07,WNW,300,0.0,0.0,88,0.00,,,0.00,Wunderground v.1.13,2013-07-29 02:08:00,
2013-07-28 22:13:00,65.0,61.4,30.07,WNW,301,0.0,0.0,88,0.00,,,0.00,Wunderground v.1.13,2013-07-29 02:13:00,
2013-07-28 22:19:00,64.7,61.4,30.07,WNW,300,0.0,0.0,89,0.00,,,0.00,Wunderground v.1.13,2013-07-29 02:19:00,
2013-07-28 22:25:00,64.4,61.1,30.07,WNW,301,0.0,0.0,89,0.00,,,0.00,Wunderground v.1.13,2013-07-29 02:25:00,
2013-07-28 22:30:00,64.1,60.8,30.07,WNW,301,0.0,0.0,89,0.00,,,0.00,Wunderground v.1.13,2013-07-29 02:30:00,
2013-07-28 22:36:00,63.9,60.9,30.07,WNW,301,0.0,0.0,90,0.00,,,0.00,Wunderground v.1.13,2013-07-29 02:36:00,
2013-07-28 22:41:00,63.7,60.7,30.08,WNW,301,0.0,0.0,90,0.00,,,0.00,Wunderground v.1.13,2013-07-29 02:41:00,
2013-07-28 22:47:00,63.5,60.5,30.08,WNW,301,0.0,0.0,90,0.00,,,0.00,Wunderground v.1.13,2013-07-29 02:47:00,
2013-07-28 22:52:00,63.4,60.7,30.08,WNW,300,0.0,0.0,91,0.00,,,0.00,Wunderground v.1.13,2013-07-29 02:52:00,
2013-07-28 22:58:00,63.2,60.5,30.08,WNW,301,0.0,0.0,91,0.00,,,0.00,Wunderground v.1.13,2013-07-29 02:58:00,
2013-07-28 23:03:00,63.0,60.3,30.08,WNW,300,0.0,0.0,91,0.00,,,0.00,Wunderground v.1.13,2013-07-29 03:03:00,
2013-07-28 23:09:00,62.9,60.2,30.08,WNW,300,0.0,0.0,91,0.00,,,0.00,Wunderground v.1.13,2013-07-29 03:09:00,
2013-07-28 23:14:00,62.8,60.1,30.09,WNW,301,0.0,0.0,91,0.00,,,0.00,Wunderground v.1.13,2013-07-29 03:14:00,
2013-07-28 23:19:00,62.7,60.3,30.08,WNW,301,0.0,0.0,92,0.00,,,0.00,Wunderground v.1.13,2013-07-29 03:19:00,
2013-07-28 23:24:00,62.7,60.3,30.08,WNW,301,0.0,0.0,92,0.00,,,0.00,Wunderground v.1.13,2013-07-29 03:24:00,
2013-07-28 23:32:00,62.6,60.2,30.09,WNW,301,0.0,0.0,92,0.00,,,0.00,Wunderground v.1.13,2013-07-29 03:32:00,
2013-07-28 23:37:00,62.5,60.1,30.09,WNW,301,0.0,0.0,92,0.00,,,0.00,Wunderground v.1.13,2013-07-29 03:37:00,
2013-07-28 23:42:00,62.5,60.4,30.09,WNW,301,0.0,0.0,93,0.00,,,0.00,Wunderground v.1.13,2013-07-29 03:42:00,
2013-07-28 23:48:00,62.5,60.4,30.09,WNW,301,0.0,0.0,93,0.00,,,0.00,Wunderground v.1.13,2013-07-29 03:48:00,
2013-07-28 23:54:00,62.5,60.4,30.09,WNW,301,0.0,0.0,93,0.00,,,0.00,Wunderground v.1.13,2013-07-29 03:54:00,
2013-07-28 23:59:00,62.4,60.3,30.09,WNW,300,0.0,0.0,93,0.00,,,0.00,Wunderground v.1.13,2013-07-29 03:59:00,